Time;durP1;ratioP1;P1;durP2;ratioP2;P2;SDS_P1;SDS_P2;PMS_P1;PMS_P2;Temp;Humidity;BMP_temperature;BMP_pressure;BME280_temperature;BME280_humidity;BME280_pressure;Samples;Min_cycle;Max_cycle;Signal;HPM_P1;HPM_P2
2023/08/02 00:00:09;;;;;;;9.30;2.97;;;16.10;99.90;;;;;;5067491;28;20064;-56
2023/08/02 00:02:34;;;;;;;;;;;16.00;99.90;;;;;;5051790;28;20136;-59
2023/08/02 00:05:00;;;;;;;4.78;2.45;;;16.00;99.90;;;;;;5065441;28;20417;-60
2023/08/02 00:07:25;;;;;;;8.07;2.83;;;16.00;99.90;;;;;;5064575;28;20066;-59
2023/08/02 00:09:51;;;;;;;10.93;3.33;;;15.90;99.90;;;;;;5067215;28;20036;-57
2023/08/02 00:12:16;;;;;;;7.25;2.97;;;16.00;99.90;;;;;;5051338;28;20493;-56
2023/08/02 00:14:42;;;;;;;8.63;2.67;;;16.00;99.90;;;;;;5051585;28;20045;-57
2023/08/02 00:17:08;;;;;;;9.57;2.67;;;16.00;99.90;;;;;;5051444;28;20032;-57
2023/08/02 00:19:35;;;;;;;;;;;16.00;99.90;;;;;;5051089;28;20036;-55
2023/08/02 00:22:01;;;;;;;5.78;3.58;;;15.90;99.90;;;;;;5052682;28;19917;-57
2023/08/02 00:24:27;;;;;;;10.55;3.55;;;16.00;99.90;;;;;;5052294;28;20072;-61
2023/08/02 00:26:52;;;;;;;7.45;2.85;;;16.00;99.90;;;;;;5049783;28;20043;-57
2023/08/02 00:29:18;;;;;;;10.73;3.70;;;15.90;99.90;;;;;;5050906;28;20118;-57
2023/08/02 00:31:43;;;;;;;10.48;3.38;;;15.90;99.90;;;;;;5049906;28;20249;-58
2023/08/02 00:34:09;;;;;;;8.45;3.53;;;15.90;99.90;;;;;;5064582;28;20032;-59
2023/08/02 00:36:34;;;;;;;10.57;4.28;;;15.90;99.90;;;;;;5067812;28;20513;-58
2023/08/02 00:39:00;;;;;;;16.15;3.17;;;15.90;99.90;;;;;;5054160;28;20029;-56
2023/08/02 00:41:26;;;;;;;6.57;2.75;;;15.90;99.90;;;;;;5050622;28;20045;-60
2023/08/02 00:43:51;;;;;;;13.15;3.83;;;15.90;99.90;;;;;;5050369;28;20041;-59
2023/08/02 00:46:19;;;;;;;16.77;4.05;;;15.90;99.90;;;;;;5067574;28;20098;-55
2023/08/02 00:48:46;;;;;;;6.53;2.53;;;15.90;99.90;;;;;;5065653;28;20040;-54
2023/08/02 00:51:13;;;;;;;12.65;3.22;;;15.90;99.90;;;;;;5068967;28;20041;-59
2023/08/02 00:53:39;;;;;;;11.68;3.38;;;15.80;99.90;;;;;;5063313;28;20036;-54
2023/08/02 00:56:05;;;;;;;10.68;3.05;;;15.80;99.90;;;;;;5064302;28;20136;-57
2023/08/02 00:58:32;;;;;;;15.45;2.97;;;15.80;99.90;;;;;;5066199;28;20032;-57
2023/08/02 01:01:06;;;;;;;10.40;3.50;;;15.80;99.90;;;;;;5055366;28;20032;-59
2023/08/02 01:03:34;;;;;;;12.75;3.75;;;15.80;99.90;;;;;;5057949;28;20048;-56
2023/08/02 01:06:06;;;;;;;9.70;3.17;;;15.80;99.90;;;;;;5055289;28;20091;-61
2023/08/02 01:08:35;;;;;;;12.73;3.40;;;15.80;99.90;;;;;;5062936;28;20037;-60
2023/08/02 01:11:08;;;;;;;20.40;3.88;;;15.80;99.90;;;;;;5067938;28;20040;-58
2023/08/02 01:13:39;;;;;;;8.30;3.25;;;15.80;99.90;;;;;;5063996;28;20045;-58
2023/08/02 01:16:06;;;;;;;17.35;3.47;;;15.80;99.90;;;;;;5058702;28;20032;-56
2023/08/02 01:18:31;;;;;;;14.48;4.25;;;15.80;99.90;;;;;;5062597;28;20041;-59
2023/08/02 01:20:57;;;;;;;12.25;3.85;;;15.80;99.90;;;;;;5067013;28;20452;-54
2023/08/02 01:23:22;;;;;;;10.30;3.67;;;15.80;99.90;;;;;;5065059;28;20067;-57
2023/08/02 01:25:51;;;;;;;13.85;3.60;;;15.80;99.90;;;;;;5050798;28;20029;-57
2023/08/02 01:28:20;;;;;;;15.35;3.70;;;15.80;99.90;;;;;;5050536;28;20052;-57
2023/08/02 01:30:47;;;;;;;7.40;3.08;;;15.80;99.90;;;;;;5067409;28;20056;-59
2023/08/02 01:33:14;;;;;;;14.25;3.00;;;15.80;99.90;;;;;;5068399;28;20111;-55
2023/08/02 01:35:40;;;;;;;13.02;3.70;;;15.80;99.90;;;;;;5055148;28;20044;-57
2023/08/02 01:38:06;;;;;;;16.20;4.40;;;15.80;99.90;;;;;;5049653;28;20029;-56
2023/08/02 01:40:31;;;;;;;;;;;15.80;99.90;;;;;;5050284;28;20047;-57
2023/08/02 01:42:57;;;;;;;13.68;4.28;;;15.80;99.90;;;;;;5065312;28;19920;-58
2023/08/02 01:45:23;;;;;;;9.15;4.10;;;15.80;99.90;;;;;;5053583;28;20371;-57
2023/08/02 01:47:48;;;;;;;14.70;4.30;;;15.70;99.90;;;;;;5050660;28;20486;-58
2023/08/02 01:50:14;;;;;;;17.05;3.60;;;15.70;99.90;;;;;;5049652;28;20041;-55
2023/08/02 01:52:39;;;;;;;12.65;4.00;;;15.70;99.90;;;;;;5050028;28;20619;-59
2023/08/02 01:55:06;;;;;;;15.13;3.75;;;15.70;99.90;;;;;;5060692;28;20031;-55
2023/08/02 01:57:31;;;;;;;12.10;3.50;;;15.70;99.90;;;;;;5065709;28;20033;-54
2023/08/02 01:59:57;;;;;;;9.57;3.65;;;15.70;99.90;;;;;;5058658;28;20565;-55
2023/08/02 02:02:22;;;;;;;12.05;3.80;;;15.60;99.90;;;;;;5060489;28;20040;-57
2023/08/02 02:04:48;;;;;;;16.75;4.45;;;15.60;99.90;;;;;;5055893;28;20068;-56
2023/08/02 02:07:14;;;;;;;20.95;4.85;;;15.50;99.90;;;;;;5066067;28;20028;-53
2023/08/02 02:09:39;;;;;;;17.83;4.78;;;15.50;99.90;;;;;;5065475;28;20044;-57
2023/08/02 02:12:05;;;;;;;14.27;3.13;;;15.50;99.90;;;;;;5065985;28;20095;-59
2023/08/02 02:14:31;;;;;;;11.52;4.05;;;15.50;99.90;;;;;;5052041;28;20029;-57
2023/08/02 02:16:56;;;;;;;17.38;5.00;;;15.40;99.90;;;;;;5049474;28;20456;-59
2023/08/02 02:19:22;;;;;;;13.75;4.30;;;15.40;99.90;;;;;;5049426;28;20112;-54
2023/08/02 02:21:47;;;;;;;9.05;3.55;;;15.30;99.90;;;;;;5061029;28;20036;-58
2023/08/02 02:24:13;;;;;;;13.32;4.30;;;15.30;99.90;;;;;;5064669;28;20033;-60
2023/08/02 02:26:38;;;;;;;18.40;4.40;;;15.30;99.90;;;;;;5049361;28;20041;-55
2023/08/02 02:29:04;;;;;;;11.02;3.58;;;15.20;99.90;;;;;;5050310;28;20054;-59
2023/08/02 02:31:30;;;;;;;12.63;4.68;;;15.20;99.90;;;;;;5051680;28;20037;-55
2023/08/02 02:33:55;;;;;;;13.50;4.18;;;15.20;99.90;;;;;;5050743;28;20041;-57
2023/08/02 02:36:21;;;;;;;15.45;4.30;;;15.20;99.90;;;;;;5049217;28;20078;-57
2023/08/02 02:38:47;;;;;;;11.75;4.35;;;15.10;99.90;;;;;;5049100;28;20549;-56
2023/08/02 02:41:12;;;;;;;13.98;4.80;;;15.10;99.90;;;;;;5048731;28;20410;-54
2023/08/02 02:43:38;;;;;;;9.48;3.50;;;15.10;99.90;;;;;;5066436;28;20098;-55
2023/08/02 02:46:03;;;;;;;13.60;4.03;;;15.00;99.90;;;;;;5065184;28;20225;-55
2023/08/02 02:48:29;;;;;;;20.73;4.70;;;15.00;99.90;;;;;;5064041;28;20044;-60
2023/08/02 02:50:54;;;;;;;14.57;5.57;;;15.00;99.90;;;;;;5067513;28;20041;-56
2023/08/02 02:53:22;;;;;;;13.75;5.80;;;14.90;99.90;;;;;;5066694;28;20074;-56
2023/08/02 02:55:48;;;;;;;16.42;5.05;;;14.90;99.90;;;;;;5062299;28;20505;-55
2023/08/02 02:58:14;;;;;;;21.50;5.53;;;14.80;99.90;;;;;;5066003;28;20120;-54
2023/08/02 03:00:39;;;;;;;16.75;4.78;;;14.80;99.90;;;;;;5066140;28;20040;-56
2023/08/02 03:03:05;;;;;;;11.13;4.93;;;14.80;99.90;;;;;;5053735;28;20047;-59
2023/08/02 03:05:30;;;;;;;7.97;4.90;;;14.80;99.90;;;;;;5048504;28;20509;-55
2023/08/02 03:07:56;;;;;;;10.18;5.20;;;14.80;99.90;;;;;;5053389;28;20060;-57
2023/08/02 03:10:21;;;;;;;12.73;5.10;;;14.80;99.90;;;;;;5052425;28;20063;-56
2023/08/02 03:12:47;;;;;;;15.20;5.70;;;14.70;99.90;;;;;;5054223;28;20056;-56
2023/08/02 03:15:13;;;;;;;12.50;4.57;;;14.70;99.90;;;;;;5052784;28;20087;-55
2023/08/02 03:17:38;;;;;;;18.08;5.45;;;14.70;99.90;;;;;;5052485;28;20490;-56
2023/08/02 03:20:04;;;;;;;13.75;5.47;;;14.70;99.90;;;;;;5052295;28;20045;-57
2023/08/02 03:22:30;;;;;;;10.43;4.63;;;14.70;99.90;;;;;;5064682;28;20036;-59
2023/08/02 03:24:56;;;;;;;9.93;5.57;;;14.70;99.90;;;;;;5067857;28;20041;-58
2023/08/02 03:27:21;;;;;;;12.77;4.78;;;14.70;99.90;;;;;;5067258;28;20111;-54
2023/08/02 03:29:47;;;;;;;14.80;5.55;;;14.70;99.90;;;;;;5069819;28;20032;-56
2023/08/02 03:32:12;;;;;;;14.75;6.63;;;14.70;99.90;;;;;;5067258;28;20043;-55
2023/08/02 03:34:38;;;;;;;20.02;6.03;;;14.70;99.90;;;;;;5070395;28;20515;-57
2023/08/02 03:37:03;;;;;;;13.40;6.20;;;14.60;99.90;;;;;;5067515;28;20041;-55
2023/08/02 03:39:29;;;;;;;9.82;5.53;;;14.70;99.90;;;;;;5066601;28;20037;-57
2023/08/02 03:41:55;;;;;;;19.80;6.13;;;14.60;99.90;;;;;;5068677;28;20040;-53
2023/08/02 03:44:21;;;;;;;19.77;7.63;;;14.60;99.90;;;;;;5054971;28;20497;-56
2023/08/02 03:46:46;;;;;;;19.83;6.93;;;14.60;99.90;;;;;;5051772;28;20048;-57
2023/08/02 03:49:12;;;;;;;14.85;6.00;;;14.60;99.90;;;;;;5052940;28;20028;-58
2023/08/02 03:51:37;;;;;;;9.70;6.03;;;14.60;99.90;;;;;;5058309;28;20493;-57
2023/08/02 03:54:04;;;;;;;15.60;6.90;;;14.60;99.90;;;;;;5070089;28;20056;-53
2023/08/02 03:56:30;;;;;;;18.33;5.97;;;14.60;99.90;;;;;;5068842;28;20543;-58
2023/08/02 03:58:56;;;;;;;13.75;6.13;;;14.60;99.90;;;;;;5068684;28;20030;-57
2023/08/02 04:01:21;;;;;;;16.88;6.68;;;14.60;99.90;;;;;;5065859;28;20045;-54
2023/08/02 04:03:47;;;;;;;9.05;5.75;;;14.60;99.90;;;;;;5070209;28;20040;-57
2023/08/02 04:06:13;;;;;;;16.08;6.57;;;14.60;99.90;;;;;;5067979;28;20405;-56
2023/08/02 04:08:38;;;;;;;14.68;5.95;;;14.60;99.90;;;;;;5066534;28;20405;-59
2023/08/02 04:11:05;;;;;;;10.85;5.78;;;14.60;99.90;;;;;;5066747;28;20037;-54
2023/08/02 04:13:31;;;;;;;16.38;6.38;;;14.60;99.90;;;;;;5053954;28;20524;-60
2023/08/02 04:15:56;;;;;;;14.57;6.15;;;14.60;99.90;;;;;;5067076;28;20290;-57
2023/08/02 04:18:22;;;;;;;17.30;6.35;;;14.60;99.90;;;;;;5051708;28;20067;-54
2023/08/02 04:20:48;;;;;;;13.95;5.30;;;14.60;99.90;;;;;;5052370;28;20053;-56
2023/08/02 04:23:13;;;;;;;15.25;5.55;;;14.60;99.90;;;;;;5050758;28;20037;-57
2023/08/02 04:25:39;;;;;;;12.98;5.25;;;14.60;99.90;;;;;;5051445;28;20044;-59
2023/08/02 04:28:05;;;;;;;12.93;5.57;;;14.60;99.90;;;;;;5054896;28;20137;-53
2023/08/02 04:30:31;;;;;;;10.82;5.25;;;14.60;99.90;;;;;;5062181;28;20040;-56
2023/08/02 04:32:57;;;;;;;17.02;5.00;;;14.60;99.90;;;;;;5060301;28;20033;-56
2023/08/02 04:35:22;;;;;;;16.10;5.32;;;14.60;99.90;;;;;;5066270;28;20467;-53
2023/08/02 04:37:48;;;;;;;12.93;5.13;;;14.60;99.90;;;;;;5060404;28;20029;-56
2023/08/02 04:40:13;;;;;;;12.48;5.13;;;14.60;99.90;;;;;;5062560;28;20090;-55
2023/08/02 04:42:39;;;;;;;14.25;5.25;;;14.60;99.90;;;;;;5061856;28;20056;-60
2023/08/02 04:45:05;;;;;;;13.93;5.50;;;14.60;99.90;;;;;;5067308;28;20036;-59
2023/08/02 04:47:31;;;;;;;12.23;5.95;;;14.60;99.90;;;;;;5057196;28;20039;-56
2023/08/02 04:49:57;;;;;;;14.25;5.93;;;14.60;99.90;;;;;;5050800;28;20120;-58
2023/08/02 04:52:23;;;;;;;;;;;14.60;99.90;;;;;;5059851;28;20040;-60
2023/08/02 04:54:48;;;;;;;8.60;4.97;;;14.60;99.90;;;;;;5053181;28;20374;-55
2023/08/02 04:57:14;;;;;;;10.05;4.95;;;14.70;99.90;;;;;;5058868;28;20037;-53
2023/08/02 04:59:39;;;;;;;9.52;4.97;;;14.60;99.90;;;;;;5058340;28;20036;-54
2023/08/02 05:02:05;;;;;;;11.30;4.50;;;14.70;99.90;;;;;;5060603;28;20041;-58
2023/08/02 05:04:30;;;;;;;11.38;5.32;;;14.70;99.90;;;;;;5065861;28;20119;-56
2023/08/02 05:06:56;;;;;;;12.50;4.85;;;14.80;99.90;;;;;;5058111;28;20045;-60
2023/08/02 05:09:22;;;;;;;11.55;5.13;;;14.80;99.90;;;;;;5050503;28;20044;-57
2023/08/02 05:11:47;;;;;;;11.32;5.28;;;14.80;99.90;;;;;;5053142;28;20119;-58
2023/08/02 05:14:13;;;;;;;11.23;5.47;;;14.80;99.90;;;;;;5067011;28;20402;-55
2023/08/02 05:16:38;;;;;;;10.70;4.45;;;14.90;99.90;;;;;;5063692;28;20028;-56
2023/08/02 05:19:04;;;;;;;8.90;4.53;;;14.90;99.90;;;;;;5050095;28;20039;-58
2023/08/02 05:21:29;;;;;;;11.63;5.20;;;14.90;99.90;;;;;;5064819;28;20306;-58
2023/08/02 05:23:55;;;;;;;12.57;4.80;;;14.90;99.90;;;;;;5052455;28;20349;-53
2023/08/02 05:26:22;;;;;;;14.65;5.55;;;15.00;99.90;;;;;;5063407;28;20122;-57
2023/08/02 05:28:48;;;;;;;8.80;4.97;;;15.00;99.90;;;;;;5066195;28;20044;-58
2023/08/02 05:31:14;;;;;;;10.93;5.47;;;15.00;99.90;;;;;;5067219;28;20041;-58
2023/08/02 05:33:40;;;;;;;7.65;5.05;;;15.00;99.90;;;;;;5055443;28;20186;-59
2023/08/02 05:36:06;;;;;;;12.65;5.13;;;15.00;99.90;;;;;;5064102;28;20029;-58
2023/08/02 05:38:34;;;;;;;7.35;4.15;;;15.10;99.90;;;;;;5050884;28;20044;-56
2023/08/02 05:41:01;;;;;;;11.32;5.00;;;15.10;99.90;;;;;;5051081;28;20082;-58
2023/08/02 05:43:27;;;;;;;13.70;5.85;;;15.20;99.90;;;;;;5050948;28;20458;-55
2023/08/02 05:45:53;;;;;;;10.18;5.38;;;15.30;99.90;;;;;;5060313;28;20064;-55
2023/08/02 05:48:19;;;;;;;11.90;5.40;;;15.30;99.90;;;;;;5054307;28;20041;-55
2023/08/02 05:50:44;;;;;;;13.40;4.53;;;15.40;99.90;;;;;;5060702;28;20044;-57
2023/08/02 05:53:10;;;;;;;12.90;4.82;;;15.40;99.90;;;;;;5058169;28;20032;-60
2023/08/02 05:55:35;;;;;;;11.50;5.18;;;15.50;99.90;;;;;;5051847;28;20057;-54
2023/08/02 05:58:01;;;;;;;10.93;4.72;;;15.50;99.90;;;;;;5056326;28;20485;-57
2023/08/02 06:00:26;;;;;;;9.45;4.40;;;15.50;99.90;;;;;;5058038;28;20170;-57
2023/08/02 06:02:52;;;;;;;11.38;3.65;;;15.60;99.90;;;;;;5055124;28;20037;-58
2023/08/02 06:05:18;;;;;;;8.48;3.63;;;15.60;99.90;;;;;;5050243;28;20048;-53
2023/08/02 06:07:43;;;;;;;16.15;4.70;;;15.60;99.90;;;;;;5054303;28;20178;-57
2023/08/02 06:10:09;;;;;;;12.65;4.60;;;15.60;99.90;;;;;;5057838;28;20512;-57
2023/08/02 06:12:34;;;;;;;12.77;4.38;;;15.60;99.90;;;;;;5055577;28;20064;-58
2023/08/02 06:15:00;;;;;;;15.23;3.95;;;15.70;99.90;;;;;;5059176;28;20056;-57
2023/08/02 06:17:26;;;;;;;13.20;4.28;;;15.70;99.90;;;;;;5056913;28;20033;-56
2023/08/02 06:19:52;;;;;;;10.57;3.83;;;15.70;99.90;;;;;;5049066;28;20040;-58
2023/08/02 06:22:17;;;;;;;11.40;3.67;;;15.80;99.90;;;;;;5058117;28;20040;-57
2023/08/02 06:24:43;;;;;;;9.18;3.65;;;15.80;99.90;;;;;;5057401;28;20091;-56
2023/08/02 06:27:10;;;;;;;12.55;4.68;;;15.80;99.90;;;;;;5059769;28;20040;-57
2023/08/02 06:29:35;;;;;;;;;;;15.80;99.90;;;;;;5066971;28;20044;-57
2023/08/02 06:32:01;;;;;;;7.05;4.30;;;15.90;99.90;;;;;;5067481;28;20344;-58
2023/08/02 06:34:27;;;;;;;11.18;4.18;;;15.90;99.90;;;;;;5054491;28;20397;-56
2023/08/02 06:36:52;;;;;;;8.85;4.80;;;15.90;99.90;;;;;;5059530;28;20111;-59
2023/08/02 06:39:18;;;;;;;8.30;4.30;;;15.80;99.90;;;;;;5059983;28;20079;-56
2023/08/02 06:41:43;;;;;;;12.35;4.82;;;15.80;99.90;;;;;;5059260;28;20039;-53
2023/08/02 06:44:09;;;;;;;12.32;3.95;;;15.80;99.90;;;;;;5066315;28;20109;-57
2023/08/02 06:46:34;;;;;;;6.10;3.50;;;15.80;99.90;;;;;;5055684;28;20083;-62
2023/08/02 06:49:00;;;;;;;11.02;3.90;;;15.90;99.90;;;;;;5063021;28;20544;-54
2023/08/02 06:51:26;;;;;;;10.30;3.50;;;15.90;99.90;;;;;;5060908;28;20076;-54
2023/08/02 06:53:52;;;;;;;8.77;3.58;;;15.90;99.90;;;;;;5056883;28;20446;-56
2023/08/02 06:56:18;;;;;;;7.75;3.30;;;15.90;99.90;;;;;;5062748;28;20032;-56
2023/08/02 06:58:44;;;;;;;7.82;2.90;;;15.90;99.90;;;;;;5061926;28;20047;-58
2023/08/02 07:01:10;;;;;;;;;;;15.90;99.90;;;;;;5065279;28;20036;-59
2023/08/02 07:03:36;;;;;;;10.23;3.17;;;15.90;99.90;;;;;;5061672;28;19948;-57
2023/08/02 07:06:08;;;;;;;9.40;3.20;;;15.90;99.90;;;;;;5063098;28;20569;-55
2023/08/02 07:08:33;;;;;;;6.50;2.50;;;15.90;99.90;;;;;;5066134;28;20041;-57
2023/08/02 07:10:59;;;;;;;6.40;2.90;;;15.90;99.90;;;;;;5062696;28;20032;-55
2023/08/02 07:13:24;;;;;;;7.43;2.53;;;15.90;99.90;;;;;;5063851;28;20033;-54
2023/08/02 07:15:50;;;;;;;6.40;2.83;;;16.00;99.90;;;;;;5056579;28;20064;-57
2023/08/02 07:18:15;;;;;;;7.82;2.70;;;16.00;99.90;;;;;;5060831;28;20397;-54
2023/08/02 07:20:41;;;;;;;9.20;2.20;;;16.00;99.90;;;;;;5063834;28;20041;-55
2023/08/02 07:23:06;;;;;;;8.10;2.70;;;16.00;99.90;;;;;;5065513;28;20065;-54
2023/08/02 07:25:32;;;;;;;7.68;3.33;;;16.00;99.90;;;;;;5069113;28;20033;-52
2023/08/02 07:27:58;;;;;;;9.90;3.03;;;16.00;99.90;;;;;;5061924;28;20576;-54
2023/08/02 07:30:23;;;;;;;5.28;2.25;;;16.00;99.90;;;;;;5062340;28;20040;-54
2023/08/02 07:32:49;;;;;;;9.88;3.33;;;16.00;99.90;;;;;;5065098;28;20039;-52
2023/08/02 07:35:15;;;;;;;4.75;2.35;;;16.00;99.90;;;;;;5064102;28;20119;-52
2023/08/02 07:37:40;;;;;;;10.20;2.35;;;16.00;99.90;;;;;;5066847;28;20119;-55
2023/08/02 07:40:06;;;;;;;7.68;2.88;;;16.00;99.90;;;;;;5063781;28;20060;-55
2023/08/02 07:42:32;;;;;;;7.38;2.95;;;16.00;99.90;;;;;;5061441;28;20032;-52
2023/08/02 07:45:06;;;;;;;9.23;3.33;;;15.90;99.90;;;;;;5071118;28;20476;-54
2023/08/02 07:47:33;;;;;;;12.07;3.30;;;15.90;99.90;;;;;;5071453;28;20425;-54
2023/08/02 07:49:58;;;;;;;8.55;4.18;;;15.80;99.90;;;;;;5070474;28;20063;-54
2023/08/02 07:52:24;;;;;;;9.88;3.78;;;15.80;99.90;;;;;;5071184;28;20037;-54
2023/08/02 07:54:52;;;;;;;12.63;3.20;;;15.70;99.90;;;;;;5062546;28;20457;-53
2023/08/02 07:57:31;;;;;;;9.75;3.72;;;15.70;99.90;;;;;;5051777;28;20094;-51
2023/08/02 07:59:58;;;;;;;13.02;3.92;;;15.70;99.90;;;;;;5059275;28;20571;-52
2023/08/02 08:02:25;;;;;;;10.07;3.05;;;15.60;99.90;;;;;;5068029;28;20413;-53
2023/08/02 08:04:51;;;;;;;12.18;3.30;;;15.60;99.90;;;;;;5068891;28;20120;-53
2023/08/02 08:07:17;;;;;;;11.07;3.63;;;15.60;99.90;;;;;;5058094;28;20075;-54
2023/08/02 08:09:43;;;;;;;13.85;4.03;;;15.50;99.90;;;;;;5057460;28;20075;-51
2023/08/02 08:12:09;;;;;;;12.38;3.63;;;15.50;99.90;;;;;;5061086;28;20581;-52
2023/08/02 08:14:34;;;;;;;;;;;15.50;99.90;;;;;;5052642;28;20041;-58
2023/08/02 08:17:01;;;;;;;14.45;4.65;;;15.50;99.90;;;;;;5050405;28;20443;-58
2023/08/02 08:19:27;;;;;;;10.95;4.72;;;15.60;99.90;;;;;;5056967;28;20037;-57
2023/08/02 08:21:53;;;;;;;;;;;15.50;99.90;;;;;;5055639;28;20044;-53
2023/08/02 08:24:19;;;;;;;10.35;4.60;;;15.50;99.90;;;;;;5057896;28;19917;-56
2023/08/02 08:26:44;;;;;;;15.27;4.65;;;15.50;99.90;;;;;;5054187;28;20102;-57
2023/08/02 08:29:10;;;;;;;12.45;4.97;;;15.60;99.90;;;;;;5049605;28;20517;-56
2023/08/02 08:31:36;;;;;;;15.05;4.93;;;15.50;99.90;;;;;;5054262;28;20056;-54
2023/08/02 08:34:02;;;;;;;6.72;4.07;;;15.60;99.90;;;;;;5059092;28;20043;-56
2023/08/02 08:36:29;;;;;;;15.35;5.78;;;15.60;99.90;;;;;;5052433;28;20024;-55
2023/08/02 08:38:56;;;;;;;10.30;5.85;;;15.70;99.90;;;;;;5053719;28;20029;-56
2023/08/02 08:41:21;;;;;;;21.33;5.90;;;15.70;99.90;;;;;;5060788;28;20086;-56
2023/08/02 08:43:47;;;;;;;13.70;5.55;;;15.80;99.90;;;;;;5051274;28;20490;-54
2023/08/02 08:46:13;;;;;;;9.05;5.78;;;15.90;99.90;;;;;;5056422;28;20562;-57
2023/08/02 08:48:39;;;;;;;15.90;5.78;;;15.90;99.90;;;;;;5057532;28;20040;-56
2023/08/02 08:51:05;;;;;;;13.38;5.25;;;15.90;99.90;;;;;;5054058;28;20112;-57
2023/08/02 08:53:36;;;;;;;11.38;6.32;;;16.00;99.90;;;;;;5056964;28;20112;-57
2023/08/02 08:56:03;;;;;;;10.30;6.00;;;15.90;99.90;;;;;;5053437;28;20036;-57
2023/08/02 08:58:32;;;;;;;10.80;5.93;;;16.00;99.90;;;;;;5056420;28;20072;-56
2023/08/02 09:00:58;;;;;;;11.95;5.72;;;15.90;99.90;;;;;;5053082;28;20048;-58
2023/08/02 09:03:24;;;;;;;;;;;15.90;99.90;;;;;;5055829;28;20565;-55
2023/08/02 09:05:50;;;;;;;9.82;5.57;;;15.90;99.90;;;;;;5052225;28;19923;-56
2023/08/02 09:08:17;;;;;;;12.73;5.97;;;15.90;99.90;;;;;;5052697;28;20045;-55
2023/08/02 09:10:42;;;;;;;;;;;15.90;99.90;;;;;;5053599;28;20375;-56
2023/08/02 09:13:21;;;;;;;;;;;15.90;99.90;;;;;;5048673;28;19973;-57
2023/08/02 09:16:07;;;;;;;;;;;15.80;99.90;;;;;;5050419;28;19925;-53
2023/08/02 09:18:33;;;;;;;;;;;15.90;99.90;;;;;;5050070;28;20002;-58
2023/08/02 09:20:59;;;;;;;;;;;15.90;99.90;;;;;;5052312;28;20008;-56
2023/08/02 09:23:24;;;;;;;;;;;15.90;99.90;;;;;;5052340;28;19920;-57
2023/08/02 09:25:49;;;;;;;;;;;15.90;99.90;;;;;;5050777;28;19923;-58
2023/08/02 09:28:15;;;;;;;;;;;15.90;99.90;;;;;;5053387;28;19965;-57
2023/08/02 09:30:40;;;;;;;;;;;15.90;99.90;;;;;;5050006;28;19921;-56
2023/08/02 09:33:08;;;;;;;;;;;16.00;99.90;;;;;;5052161;28;19929;-57
2023/08/02 09:35:47;;;;;;;;;;;16.00;99.90;;;;;;5050984;28;19921;-56
2023/08/02 09:38:13;;;;;;;;;;;16.00;99.90;;;;;;5050316;28;20437;-54
2023/08/02 09:40:39;;;;;;;;;;;16.00;99.90;;;;;;5050901;28;20142;-56
2023/08/02 09:43:08;;;;;;;;;;;16.00;99.90;;;;;;5057576;28;20424;-57
2023/08/02 09:45:34;;;;;;;;;;;16.00;99.90;;;;;;5054494;28;19955;-55
2023/08/02 09:47:59;;;;;;;;;;;16.00;99.90;;;;;;5057472;28;19916;-57
2023/08/02 09:50:25;;;;;;;;;;;15.90;99.90;;;;;;5052584;28;20009;-57
2023/08/02 09:52:51;;;;;;;;;;;15.90;99.90;;;;;;5050932;28;19916;-54
2023/08/02 09:55:16;;;;;;;;;;;15.90;99.90;;;;;;5048537;28;19999;-57
2023/08/02 09:57:43;;;;;;;;;;;15.90;99.90;;;;;;5050206;28;20288;-56
2023/08/02 10:00:09;;;;;;;;;;;16.00;99.90;;;;;;5052155;28;19969;-56
2023/08/02 10:02:35;;;;;;;;;;;16.00;99.90;;;;;;5053043;28;19916;-56
2023/08/02 10:05:01;;;;;;;;;;;16.00;99.90;;;;;;5053866;28;20696;-57
2023/08/02 10:07:42;;;;;;;;;;;16.00;99.90;;;;;;5047917;28;19955;-58
2023/08/02 10:10:18;;;;;;;;;;;16.00;99.90;;;;;;5052050;28;20227;-57
2023/08/02 10:12:47;;;;;;;;;;;16.00;99.90;;;;;;5049373;28;19928;-55
2023/08/02 10:15:13;;;;;;;;;;;16.10;99.90;;;;;;5054022;28;20256;-57
2023/08/02 10:17:38;;;;;;;;;;;16.10;99.90;;;;;;5054536;28;19916;-57
2023/08/02 10:20:05;;;;;;;;;;;16.10;99.90;;;;;;5058398;28;20014;-58
2023/08/02 10:22:31;;;;;;;;;;;16.10;99.90;;;;;;5054923;28;19959;-57
2023/08/02 10:24:56;;;;;;;;;;;16.20;99.90;;;;;;5053482;28;19917;-56
2023/08/02 10:27:23;;;;;;;;;;;16.20;99.90;;;;;;5058705;28;20007;-56
2023/08/02 10:29:49;;;;;;;;;;;16.20;99.90;;;;;;5054339;28;20385;-57
2023/08/02 10:32:17;;;;;;;;;;;16.20;99.90;;;;;;5055138;28;19925;-57
2023/08/02 10:34:44;;;;;;;;;;;16.20;99.90;;;;;;5059064;28;20010;-57
2023/08/02 10:37:09;;;;;;;;;;;16.20;99.90;;;;;;5054663;28;19924;-57
2023/08/02 10:39:53;;;;;;;;;;;16.30;99.90;;;;;;5057435;28;20298;-58
2023/08/02 10:42:31;;;;;;;;;;;16.30;99.90;;;;;;5057475;28;19970;-56
2023/08/02 10:44:56;;;;;;;;;;;16.30;99.90;;;;;;5055714;28;19920;-56
2023/08/02 10:47:24;;;;;;;;;;;16.40;99.90;;;;;;5056052;28;20404;-55
2023/08/02 10:49:51;;;;;;;;;;;16.40;99.90;;;;;;5056094;28;20192;-55
2023/08/02 10:52:33;;;;;;;;;;;16.50;99.90;;;;;;5057377;28;20333;-55
2023/08/02 10:55:17;;;;;;;;;;;16.60;99.90;;;;;;5055058;28;19928;-57
2023/08/02 10:57:55;;;;;;;;;;;16.60;99.90;;;;;;5052228;28;19916;-56
2023/08/02 11:00:23;;;;;;;;;;;16.70;99.90;;;;;;5056196;28;19924;-58
2023/08/02 11:02:50;;;;;;;;;;;16.70;99.90;;;;;;5060712;28;20010;-56
2023/08/02 11:05:18;;;;;;;;;;;16.70;99.90;;;;;;5053997;28;19916;-57
2023/08/02 11:07:58;;;;;;;;;;;16.70;99.90;;;;;;5050629;28;19966;-57
2023/08/02 11:10:24;;;;;;;;;;;16.70;99.90;;;;;;5056560;28;19920;-57
2023/08/02 11:12:53;;;;;;;;;;;16.70;99.90;;;;;;5052573;28;20361;-58
2023/08/02 11:15:19;;;;;;;;;;;16.70;99.90;;;;;;5051807;28;19925;-57
2023/08/02 11:17:44;;;;;;;;;;;16.80;99.90;;;;;;5050730;28;20428;-56
2023/08/02 11:20:10;;;;;;;;;;;16.90;99.90;;;;;;5059197;28;19923;-56
2023/08/02 11:22:36;;;;;;;;;;;17.00;99.90;;;;;;5060085;28;19923;-56
2023/08/02 11:25:03;;;;;;;;;;;17.10;99.90;;;;;;5057201;28;20377;-56
2023/08/02 11:27:28;;;;;;;;;;;17.20;99.90;;;;;;5051958;28;19939;-56
2023/08/02 11:29:58;;;;;;;;;;;17.20;99.90;;;;;;5057102;28;20015;-55
2023/08/02 11:32:23;;;;;;;;;;;17.30;99.90;;;;;;5062471;28;19921;-57
2023/08/02 11:34:49;;;;;;;;;;;17.30;99.90;;;;;;5063023;28;20380;-58
2023/08/02 11:37:15;;;;;;;;;;;17.30;99.90;;;;;;5062484;28;20007;-57
2023/08/02 11:39:51;;;;;;;;;;;17.30;99.90;;;;;;5062921;28;19927;-57
2023/08/02 11:42:16;;;;;;;;;;;17.40;99.90;;;;;;5061856;28;19916;-58
2023/08/02 11:44:44;;;;;;;;;;;17.60;99.90;;;;;;5053830;28;19979;-57
2023/08/02 11:47:10;;;;;;;;;;;17.70;99.90;;;;;;5057055;28;19942;-57
2023/08/02 11:49:49;;;;;;;;;;;17.90;99.90;;;;;;5062240;28;19942;-57
2023/08/02 11:52:23;;;;;;;;;;;18.00;99.90;;;;;;5057270;28;19920;-57
2023/08/02 11:54:48;;;;;;;;;;;18.10;99.90;;;;;;5059858;28;19955;-56
2023/08/02 11:57:14;;;;;;;;;;;18.20;99.90;;;;;;5052968;28;20389;-55
2023/08/02 11:59:44;;;;;;;;;;;18.20;99.90;;;;;;5057816;28;19969;-56
2023/08/02 12:02:26;;;;;;;;;;;18.30;99.90;;;;;;5052285;28;19925;-56
2023/08/02 12:04:52;;;;;;;;;;;18.30;99.90;;;;;;5056126;28;19954;-56
2023/08/02 12:07:27;;;;;;;;;;;18.40;99.90;;;;;;5059826;28;19916;-56
2023/08/02 12:09:53;;;;;;;;;;;18.50;99.90;;;;;;5059835;28;20305;-57
2023/08/02 12:12:19;;;;;;;;;;;18.70;99.90;;;;;;5056634;28;19921;-57
2023/08/02 12:14:44;;;;;;;;;;;18.90;99.90;;;;;;5054540;28;19920;-57
2023/08/02 12:17:17;;;;;;;;;;;19.20;99.90;;;;;;5055810;28;20343;-58
2023/08/02 12:19:43;;;;;;;;;;;19.40;99.90;;;;;;5056722;28;19924;-57
2023/08/02 12:22:08;;;;;;;;;;;19.60;99.90;;;;;;5054733;28;20288;-57
2023/08/02 12:24:34;;;;;;;;;;;19.80;99.90;;;;;;5051487;28;19951;-59
2023/08/02 12:27:16;;;;;;;;;;;19.90;99.90;;;;;;5052129;28;19969;-54
2023/08/02 12:29:44;;;;;;;;;;;20.00;99.90;;;;;;5051346;28;20014;-58
2023/08/02 12:32:30;;;;;;;;;;;20.00;99.90;;;;;;5061946;28;20397;-58
2023/08/02 12:34:55;;;;;;;;;;;20.00;99.90;;;;;;5058787;28;19917;-56
2023/08/02 12:37:21;;;;;;;;;;;19.90;99.90;;;;;;5053401;28;20439;-58
2023/08/02 12:39:46;;;;;;;;;;;19.90;99.90;;;;;;5065519;28;19917;-57
2023/08/02 12:42:12;;;;;;;;;;;19.90;99.90;;;;;;5051065;28;19956;-57
2023/08/02 12:44:37;;;;;;;;;;;19.80;99.90;;;;;;5056368;28;19932;-58
2023/08/02 12:47:03;;;;;;;;;;;19.80;99.90;;;;;;5052722;28;19916;-57
2023/08/02 12:49:28;;;;;;;;;;;19.80;99.90;;;;;;5057716;28;20037;-57
2023/08/02 12:51:54;;;;;;;;;;;19.80;99.90;;;;;;5050731;28;19931;-58
2023/08/02 12:54:19;;;;;;;;;;;19.70;99.90;;;;;;5051207;28;20389;-56
2023/08/02 12:56:45;;;;;;;;;;;19.70;99.90;;;;;;5061266;28;19971;-58
2023/08/02 12:59:10;;;;;;;;;;;19.70;99.90;;;;;;5063068;28;19916;-56
2023/08/02 13:01:37;;;;;;;;;;;19.70;99.90;;;;;;5066263;28;20161;-58
2023/08/02 13:04:02;;;;;;;;;;;19.80;99.90;;;;;;5065820;28;20340;-58
2023/08/02 13:06:28;;;;;;;;;;;19.70;99.90;;;;;;5065791;28;19917;-58